Flugplatz Husum-Schwesing

Für EDXJ sind keine METAR/TAF Berichte vorhanden.
Es werden die Flugwettermeldungen vom Flugplatz Schleswig Airport in 25 km Entfernung angezeigt.

Bericht für ETNS

vom 17.09. um 14:20 UTC

Wind 19 kt aus 310°

Sichtweite 10 km oder mehr

gering bewölkt in 2500 ft

aufgelockert bewölkt in 4000 ft

Temperatur 12.0°C

Taupunkt 6.0°C

Luftfeuchtigkeit 67%

Luftdruck 1013 hPa

ETNS 171420Z 31019KT 9999 FEW025CB SCT040 12/06 Q1013 BLU+BLU TEMPO YLO

Prognose für ETNS

vom 17.09. um 00:00 UTC

Zwischen 00:00 UTC und 00:00 UTC zeitweise

Wind 30 kt aus 320° in Böen 45 kt

Sichtweite 3000 m

Regenschauer

Code: SHGS

aufgebrochene Bewölkung in 1000 ft


Zwischen 00:00 UTC und 00:00 UTC

Wind 25 kt aus 310° in Böen 38 kt

Sichtweite 10 km oder mehr

keine signifikanten Wettererscheinungen

aufgebrochene Bewölkung in 5000 ft


Zwischen 00:00 und 00:00 UTC übergehend zu

Wind 15 kt aus 320° in Böen 25 kt

Sichtweite 10 km oder mehr

keine signifikanten Wettererscheinungen

aufgelockert bewölkt in 4000 ft

TAF AMD ETNS 171450Z 1714/1723 31025G38KT 9999 NSW BKN050 TEMPO 1714/1719 32030G45KT 3000 SHRAGS BKN010CB BECMG 1719/1721 32015G25KT 9999 NSW SCT040 CANCEL 1500 BY ETGL
Impressum